createdAt,value
2019-04-14T00:00:46.935Z,992.85
2019-04-14T00:01:47.679Z,992.85
2019-04-14T00:02:46.970Z,992.83
2019-04-14T00:03:47.597Z,992.78
2019-04-14T00:04:46.886Z,992.78
2019-04-14T00:05:47.259Z,992.77
2019-04-14T00:06:46.869Z,992.81
2019-04-14T00:07:47.140Z,992.79
2019-04-14T00:08:47.832Z,992.8
2019-04-14T00:09:47.471Z,992.81
2019-04-14T00:10:46.830Z,992.85
2019-04-14T00:11:47.999Z,992.88
2019-04-14T00:12:47.073Z,992.87
2019-04-14T00:13:47.803Z,992.85
2019-04-14T00:14:46.998Z,992.88
2019-04-14T00:15:49.006Z,992.86
2019-04-14T00:16:46.821Z,992.83
2019-04-14T00:17:47.858Z,992.83
2019-04-14T00:18:47.015Z,992.8
2019-04-14T00:19:47.776Z,992.8
2019-04-14T00:20:46.955Z,992.81
2019-04-14T00:21:47.595Z,992.8
2019-04-14T00:22:46.842Z,992.78
2019-04-14T00:23:47.798Z,992.76
2019-04-14T00:24:46.793Z,992.79
2019-04-14T00:25:47.643Z,992.77
2019-04-14T00:26:46.757Z,992.75
2019-04-14T00:27:47.530Z,992.66
2019-04-14T00:28:46.935Z,992.66
2019-04-14T00:29:47.841Z,992.68
2019-04-14T00:30:46.970Z,992.62
2019-04-14T00:31:47.646Z,992.62
2019-04-14T00:32:46.638Z,992.64
2019-04-14T00:33:47.551Z,992.64
2019-04-14T00:34:46.586Z,992.64
2019-04-14T00:35:47.144Z,992.64
2019-04-14T00:36:46.583Z,992.58
2019-04-14T00:37:46.689Z,992.59
2019-04-14T00:38:47.444Z,992.58
2019-04-14T00:39:46.633Z,992.54
2019-04-14T00:40:47.595Z,992.55
2019-04-14T00:41:50.778Z,992.55
2019-04-14T00:42:47.330Z,992.5
2019-04-14T00:43:46.497Z,992.48
2019-04-14T00:44:47.347Z,992.47
2019-04-14T00:45:51.086Z,992.49
2019-04-14T00:46:47.457Z,992.48
2019-04-14T00:47:54.653Z,992.5
2019-04-14T00:48:47.371Z,992.46
2019-04-14T00:49:47.242Z,992.47
2019-04-14T00:50:47.386Z,992.45
2019-04-14T00:51:46.446Z,992.41
2019-04-14T00:52:46.408Z,992.43
2019-04-14T00:53:46.684Z,992.38
2019-04-14T00:54:46.386Z,992.34
2019-04-14T00:55:46.632Z,992.41
2019-04-14T00:56:47.370Z,992.36
2019-04-14T00:57:46.408Z,992.39
2019-04-14T00:58:47.427Z,992.35
2019-04-14T00:59:46.453Z,992.36
2019-04-14T01:00:47.286Z,992.37
2019-04-14T01:01:46.317Z,992.33
2019-04-14T01:02:47.168Z,992.35
2019-04-14T01:03:46.297Z,992.39
2019-04-14T01:04:46.903Z,992.37
2019-04-14T01:05:46.276Z,992.33
2019-04-14T01:06:46.918Z,992.36
2019-04-14T01:07:46.261Z,992.34
2019-04-14T01:08:46.798Z,992.4
2019-04-14T01:09:46.409Z,992.38
2019-04-14T01:10:47.533Z,992.41
2019-04-14T01:11:46.492Z,992.41
2019-04-14T01:12:47.377Z,992.39
2019-04-14T01:13:46.324Z,992.42
2019-04-14T01:14:47.301Z,992.4
2019-04-14T01:15:54.504Z,992.43
2019-04-14T01:16:47.249Z,992.4
2019-04-14T01:17:46.210Z,992.37
2019-04-14T01:18:47.189Z,992.35
2019-04-14T01:19:46.137Z,992.4
2019-04-14T01:20:47.081Z,992.39
2019-04-14T01:21:46.118Z,992.38
2019-04-14T01:22:46.686Z,992.38
2019-04-14T01:23:46.102Z,992.4
2019-04-14T01:24:46.836Z,992.36
2019-04-14T01:25:46.076Z,992.39
2019-04-14T01:26:46.362Z,992.38
2019-04-14T01:27:47.314Z,992.42
2019-04-14T01:28:46.192Z,992.44
2019-04-14T01:29:47.247Z,992.43
2019-04-14T01:30:46.025Z,992.43
2019-04-14T01:31:47.018Z,992.44
2019-04-14T01:32:46.012Z,992.48
2019-04-14T01:33:46.953Z,992.46
2019-04-14T01:34:45.989Z,992.47
2019-04-14T01:35:46.684Z,992.43
2019-04-14T01:36:45.963Z,992.46
2019-04-14T01:37:46.402Z,992.48
2019-04-14T01:38:47.016Z,992.45
2019-04-14T01:39:46.066Z,992.51
2019-04-14T01:40:46.653Z,992.47
2019-04-14T01:41:45.927Z,992.52
2019-04-14T01:42:46.337Z,992.53
2019-04-14T01:43:45.897Z,992.47
2019-04-14T01:44:46.052Z,992.51
2019-04-14T01:45:57.970Z,992.5
2019-04-14T01:46:45.875Z,992.52
2019-04-14T01:47:46.710Z,992.56
2019-04-14T01:48:45.845Z,992.57
2019-04-14T01:49:46.592Z,992.57
2019-04-14T01:50:45.827Z,992.59
2019-04-14T01:51:46.335Z,992.55
2019-04-14T01:52:45.889Z,992.56
2019-04-14T01:53:46.755Z,992.57
2019-04-14T01:54:45.789Z,992.62
2019-04-14T01:55:46.216Z,992.55
2019-04-14T01:56:46.926Z,992.51
2019-04-14T01:57:45.994Z,992.56
2019-04-14T01:58:46.675Z,992.53
2019-04-14T01:59:45.984Z,992.54
2019-04-14T02:00:46.652Z,992.64
2019-04-14T02:01:45.768Z,992.59
2019-04-14T02:02:46.507Z,992.57
2019-04-14T02:03:45.703Z,992.59
2019-04-14T02:04:46.386Z,992.61
2019-04-14T02:05:45.679Z,992.63
2019-04-14T02:06:46.211Z,992.61
2019-04-14T02:07:45.661Z,992.63
2019-04-14T02:08:45.904Z,992.62
2019-04-14T02:09:46.825Z,992.64
2019-04-14T02:10:45.698Z,992.68
2019-04-14T02:11:46.601Z,992.65
2019-04-14T02:12:45.610Z,992.66
2019-04-14T02:13:46.430Z,992.66
2019-04-14T02:14:45.596Z,992.67
2019-04-14T02:15:46.435Z,992.69
2019-04-14T02:16:50.746Z,992.64
2019-04-14T02:17:46.029Z,992.62
2019-04-14T02:18:45.558Z,992.63
2019-04-14T02:19:45.976Z,992.63
2019-04-14T02:20:46.739Z,992.58
2019-04-14T02:21:45.736Z,992.59
2019-04-14T02:22:46.312Z,992.58
2019-04-14T02:23:45.500Z,992.54
2019-04-14T02:24:45.992Z,992.57
2019-04-14T02:25:45.486Z,992.51
2019-04-14T02:26:45.917Z,992.5
2019-04-14T02:27:45.462Z,992.52
2019-04-14T02:28:46.150Z,992.51
2019-04-14T02:29:45.449Z,992.53
2019-04-14T02:30:52.221Z,992.49
2019-04-14T02:33:44.021Z,992.52
2019-04-14T02:37:04.287Z,992.46
2019-04-14T02:40:00.244Z,992.52
2019-04-14T02:43:02.497Z,992.51
2019-04-14T02:46:09.662Z,992.49
2019-04-14T02:49:18.243Z,992.49
2019-04-14T02:52:03.882Z,992.54
2019-04-14T02:55:29.430Z,992.57
2019-04-14T03:04:48.707Z,992.53
2019-04-14T03:10:47.040Z,992.48
2019-04-14T03:13:34.364Z,992.45
2019-04-14T03:16:37.272Z,992.48
2019-04-14T03:19:54.668Z,992.53
2019-04-14T03:25:27.529Z,992.52
2019-04-14T03:27:58.212Z,992.59
2019-04-14T03:31:58.679Z,992.64
2019-04-14T03:35:34.696Z,992.57
2019-04-14T03:39:14.810Z,992.57
2019-04-14T03:42:35.026Z,992.62
2019-04-14T03:49:05.764Z,992.58
2019-04-14T03:52:31.112Z,992.56
2019-04-14T03:54:56.262Z,992.52
2019-04-14T03:56:00.541Z,992.49
2019-04-14T03:56:56.077Z,992.47
2019-04-14T03:57:56.323Z,992.46
2019-04-14T03:58:56.047Z,992.48
2019-04-14T03:59:56.341Z,992.52
2019-04-14T04:00:56.044Z,992.49
2019-04-14T04:01:56.566Z,992.52
2019-04-14T04:02:56.011Z,992.56
2019-04-14T04:03:56.396Z,992.54
2019-04-14T04:04:55.991Z,992.57
2019-04-14T04:05:56.389Z,992.58
2019-04-14T04:06:55.970Z,992.62
2019-04-14T04:07:56.087Z,992.62
2019-04-14T04:08:55.957Z,992.66
2019-04-14T04:09:56.230Z,992.62
2019-04-14T04:10:55.938Z,992.65
2019-04-14T04:11:56.320Z,992.64
2019-04-14T04:12:55.919Z,992.7
2019-04-14T04:13:56.359Z,992.7
2019-04-14T04:14:55.889Z,992.72
2019-04-14T04:15:56.187Z,992.73
2019-04-14T04:16:57.178Z,992.68
2019-04-14T04:17:55.959Z,992.73
2019-04-14T04:19:02.273Z,992.74
2019-04-14T04:19:55.861Z,992.73
2019-04-14T04:20:56.626Z,992.72
2019-04-14T04:21:55.819Z,992.74
2019-04-14T04:22:56.532Z,992.71
2019-04-14T04:23:55.797Z,992.75
2019-04-14T04:24:56.439Z,992.71
2019-04-14T04:25:55.775Z,992.73
2019-04-14T04:26:56.049Z,992.73
2019-04-14T04:27:56.601Z,992.78
2019-04-14T04:28:56.222Z,992.73
2019-04-14T04:29:56.735Z,992.76
2019-04-14T04:30:55.939Z,992.76
2019-04-14T04:31:56.826Z,992.77
2019-04-14T04:32:55.877Z,992.78
2019-04-14T04:33:56.523Z,992.84
2019-04-14T04:34:55.683Z,992.81
2019-04-14T04:35:56.455Z,992.8
2019-04-14T04:36:55.665Z,992.84
2019-04-14T04:37:56.303Z,992.82
2019-04-14T04:38:55.639Z,992.78
2019-04-14T04:39:56.110Z,992.82
2019-04-14T04:40:55.618Z,992.82
2019-04-14T04:41:55.801Z,992.86
2019-04-14T04:42:56.826Z,992.86
2019-04-14T04:43:56.073Z,992.88
2019-04-14T04:44:55.580Z,992.89
2019-04-14T04:45:55.924Z,992.83
2019-04-14T04:46:55.557Z,992.9
2019-04-14T04:47:55.656Z,992.89
2019-04-14T04:49:03.081Z,992.91
2019-04-14T04:49:55.526Z,992.94
2019-04-14T04:50:56.474Z,992.95
2019-04-14T04:51:55.506Z,993.01
2019-04-14T04:52:56.168Z,992.98
2019-04-14T04:53:55.484Z,992.98
2019-04-14T04:54:55.896Z,993.03
2019-04-14T04:55:56.725Z,992.99
2019-04-14T04:56:55.845Z,992.95
2019-04-14T04:57:56.449Z,992.98
2019-04-14T04:58:55.432Z,993.03
2019-04-14T04:59:56.122Z,993
2019-04-14T05:00:56.299Z,992.96
2019-04-14T05:01:55.878Z,993
2019-04-14T05:02:55.400Z,993.02
2019-04-14T05:03:55.697Z,992.97
2019-04-14T05:04:55.369Z,993.01
2019-04-14T05:05:55.721Z,992.98
2019-04-14T05:06:55.351Z,992.97
2019-04-14T05:07:55.483Z,993.02
2019-04-14T05:08:55.334Z,993.02
2019-04-14T05:09:55.571Z,992.99
2019-04-14T05:10:55.308Z,992.99
2019-04-14T05:11:56.437Z,993.02
2019-04-14T05:12:56.413Z,993.02
2019-04-14T05:13:55.387Z,993.03
2019-04-14T05:14:55.284Z,993.02
2019-04-14T05:15:55.344Z,993.06
2019-04-14T05:16:55.248Z,993.1
2019-04-14T05:17:55.934Z,993.07
2019-04-14T05:18:55.261Z,993.1
2019-04-14T05:19:56.213Z,993.13
2019-04-14T05:20:55.430Z,993.09
2019-04-14T05:21:55.939Z,993.15
2019-04-14T05:22:55.185Z,993.11
2019-04-14T05:23:56.004Z,993.1
2019-04-14T05:24:55.164Z,993.16
2019-04-14T05:25:56.063Z,993.18
2019-04-14T05:26:55.145Z,993.22
2019-04-14T05:27:55.825Z,993.25
2019-04-14T05:28:55.125Z,993.27
2019-04-14T05:29:55.813Z,993.25
2019-04-14T05:30:55.110Z,993.23
2019-04-14T05:31:55.499Z,993.23
2019-04-14T05:32:55.095Z,993.25
2019-04-14T05:33:55.438Z,993.27
2019-04-14T05:34:55.065Z,993.26
2019-04-14T05:35:55.327Z,993.25
2019-04-14T05:36:55.042Z,993.24
2019-04-14T05:37:55.140Z,993.23
2019-04-14T05:38:55.950Z,993.26
2019-04-14T05:39:55.013Z,993.27
2019-04-14T05:40:56.090Z,993.27
2019-04-14T05:42:04.898Z,993.21
2019-04-14T05:42:55.882Z,993.22
2019-04-14T05:43:58.712Z,993.26
2019-04-14T05:44:55.801Z,993.24
2019-04-14T05:45:54.954Z,993.27
2019-04-14T05:46:55.722Z,993.24
2019-04-14T05:47:54.941Z,993.32
2019-04-14T05:48:55.759Z,993.32
2019-04-14T05:49:56.479Z,993.36
2019-04-14T05:50:55.471Z,993.35
2019-04-14T05:51:54.900Z,993.34
2019-04-14T05:52:55.710Z,993.42
2019-04-14T05:53:54.873Z,993.4
2019-04-14T05:54:55.787Z,993.39
2019-04-14T05:55:54.851Z,993.36
2019-04-14T05:56:55.748Z,993.38
2019-04-14T05:57:54.842Z,993.34
2019-04-14T05:58:55.753Z,993.32
2019-04-14T05:59:54.880Z,993.3
2019-04-14T06:00:55.792Z,993.37
2019-04-14T06:01:54.794Z,993.36
2019-04-14T06:02:55.168Z,993.41
2019-04-14T06:03:56.003Z,993.42
2019-04-14T06:04:55.025Z,993.45
2019-04-14T06:05:54.756Z,993.42
2019-04-14T06:06:54.742Z,993.43
2019-04-14T06:07:55.555Z,993.44
2019-04-14T06:08:54.725Z,993.47
2019-04-14T06:09:54.714Z,993.48
2019-04-14T06:10:54.732Z,993.51
2019-04-14T06:11:54.701Z,993.48
2019-04-14T06:12:54.687Z,993.51
2019-04-14T06:13:54.675Z,993.47
2019-04-14T06:14:54.664Z,993.5
2019-04-14T06:15:54.654Z,993.51
2019-04-14T06:16:54.642Z,993.48
2019-04-14T06:17:54.635Z,993.48
2019-04-14T06:18:54.626Z,993.49
2019-04-14T06:19:54.612Z,993.53
2019-04-14T06:20:54.611Z,993.54
2019-04-14T06:21:54.594Z,993.51
2019-04-14T06:22:54.585Z,993.56
2019-04-14T06:23:54.590Z,993.54
2019-04-14T06:24:54.577Z,993.57
2019-04-14T06:25:54.562Z,993.51
2019-04-14T06:26:54.569Z,993.53
2019-04-14T06:27:54.547Z,993.51
2019-04-14T06:28:54.542Z,993.53
2019-04-14T06:29:54.525Z,993.59
2019-04-14T06:30:54.516Z,993.6
2019-04-14T06:31:54.521Z,993.59
2019-04-14T06:32:54.499Z,993.55
2019-04-14T06:33:54.484Z,993.59
2019-04-14T06:34:54.478Z,993.6
2019-04-14T06:35:54.469Z,993.61
2019-04-14T06:36:54.461Z,993.64
2019-04-14T06:37:54.462Z,993.59
2019-04-14T06:38:54.441Z,993.58
2019-04-14T06:39:54.429Z,993.6
2019-04-14T06:40:54.419Z,993.64
2019-04-14T06:41:54.412Z,993.62
2019-04-14T06:42:54.415Z,993.62
2019-04-14T06:43:54.391Z,993.66
2019-04-14T06:44:54.383Z,993.64
2019-04-14T06:45:54.373Z,993.61
2019-04-14T06:46:54.366Z,993.61
2019-04-14T06:47:54.357Z,993.54
2019-04-14T06:48:54.345Z,993.53
2019-04-14T06:49:54.338Z,993.59
2019-04-14T06:50:54.327Z,993.45
2019-04-14T06:51:54.319Z,993.47
2019-04-14T06:52:54.318Z,993.46
2019-04-14T06:53:54.303Z,993.47
2019-04-14T06:54:54.295Z,993.45
2019-04-14T06:55:55.086Z,993.49
2019-04-14T06:56:54.276Z,993.46
2019-04-14T06:57:54.266Z,993.48
2019-04-14T06:58:54.258Z,993.49
2019-04-14T06:59:54.251Z,993.48
2019-04-14T07:00:54.243Z,993.49
2019-04-14T07:01:54.232Z,993.51
2019-04-14T07:02:54.238Z,993.5
2019-04-14T07:03:54.215Z,993.48
2019-04-14T07:04:54.211Z,993.49
2019-04-14T07:05:54.197Z,993.48
2019-04-14T07:06:54.189Z,993.46
2019-04-14T07:07:57.101Z,993.41
2019-04-14T07:08:54.172Z,993.45
2019-04-14T07:09:54.173Z,993.43
2019-04-14T07:10:54.151Z,993.45
2019-04-14T07:11:54.182Z,993.44
2019-04-14T07:12:54.158Z,993.52
2019-04-14T07:13:54.136Z,993.51
2019-04-14T07:14:54.127Z,993.53
2019-04-14T07:15:54.113Z,993.52
2019-04-14T07:16:54.099Z,993.5
2019-04-14T07:17:54.092Z,993.53
2019-04-14T07:18:54.083Z,993.53
2019-04-14T07:20:01.643Z,993.55
2019-04-14T07:20:54.069Z,993.57
2019-04-14T07:21:54.060Z,993.55
2019-04-14T07:22:54.049Z,993.54
2019-04-14T07:23:54.039Z,993.59
2019-04-14T07:24:54.034Z,993.57
2019-04-14T07:25:54.027Z,993.56
2019-04-14T07:26:54.019Z,993.61
2019-04-14T07:27:54.013Z,993.57
2019-04-14T07:28:56.752Z,993.59
2019-04-14T07:29:53.995Z,993.59
2019-04-14T07:30:53.986Z,993.54
2019-04-14T07:31:53.978Z,993.59
2019-04-14T07:32:53.970Z,993.55
2019-04-14T07:33:53.963Z,993.53
2019-04-14T07:34:53.964Z,993.52
2019-04-14T07:35:53.953Z,993.54
2019-04-14T07:36:53.941Z,993.54
2019-04-14T07:37:53.933Z,993.51
2019-04-14T07:38:53.923Z,993.48
2019-04-14T07:39:53.915Z,993.5
2019-04-14T07:40:53.910Z,993.45
2019-04-14T07:41:53.900Z,993.48
2019-04-14T07:42:53.897Z,993.5
2019-04-14T07:43:53.908Z,993.51
2019-04-14T07:44:53.876Z,993.47
2019-04-14T07:45:53.868Z,993.47
2019-04-14T07:46:53.863Z,993.51
2019-04-14T07:47:53.857Z,993.53
2019-04-14T07:48:53.871Z,993.57
2019-04-14T07:49:53.848Z,993.55
2019-04-14T07:50:53.845Z,993.56
2019-04-14T07:51:53.824Z,993.56
2019-04-14T07:52:53.817Z,993.55
2019-04-14T07:53:53.821Z,993.52
2019-04-14T07:54:53.807Z,993.55
2019-04-14T07:55:53.802Z,993.53
2019-04-14T07:56:53.814Z,993.5
2019-04-14T07:57:53.791Z,993.53
2019-04-14T07:58:53.778Z,993.51
2019-04-14T07:59:53.777Z,993.5
2019-04-14T08:00:53.767Z,993.49
2019-04-14T08:01:53.759Z,993.46
2019-04-14T08:02:53.759Z,993.43
2019-04-14T08:03:53.762Z,993.51
2019-04-14T08:04:53.743Z,993.5
2019-04-14T08:05:53.746Z,993.49
2019-04-14T08:06:53.739Z,993.55
2019-04-14T08:07:53.736Z,993.52
2019-04-14T08:08:53.725Z,993.51
2019-04-14T08:09:53.715Z,993.52
2019-04-14T08:10:53.707Z,993.53
2019-04-14T08:11:53.702Z,993.49
2019-04-14T08:12:53.701Z,993.53
2019-04-14T08:13:53.686Z,993.57
2019-04-14T08:14:53.698Z,993.57
2019-04-14T08:15:53.688Z,993.59
2019-04-14T08:16:53.780Z,993.58
2019-04-14T08:17:53.662Z,993.58
2019-04-14T08:18:53.661Z,993.54
2019-04-14T08:19:53.670Z,993.6
2019-04-14T08:20:53.651Z,993.57
2019-04-14T08:21:53.644Z,993.53
2019-04-14T08:22:53.637Z,993.53
2019-04-14T08:23:53.619Z,993.54
2019-04-14T08:24:53.616Z,993.58
2019-04-14T08:25:53.608Z,993.58
2019-04-14T08:26:53.596Z,993.58
2019-04-14T08:27:53.592Z,993.6
2019-04-14T08:28:53.586Z,993.65
2019-04-14T08:29:53.579Z,993.64
2019-04-14T08:30:53.582Z,993.63
2019-04-14T08:31:53.574Z,993.63
2019-04-14T08:32:53.573Z,993.65
2019-04-14T08:33:53.558Z,993.61
2019-04-14T08:34:53.546Z,993.6
2019-04-14T08:35:53.547Z,993.61
2019-04-14T08:36:53.534Z,993.63
2019-04-14T08:37:53.528Z,993.59
2019-04-14T08:38:53.525Z,993.61
2019-04-14T08:39:53.518Z,993.6
2019-04-14T08:40:53.513Z,993.59
2019-04-14T08:41:53.504Z,993.57
2019-04-14T08:42:53.503Z,993.58
2019-04-14T08:43:53.491Z,993.58
2019-04-14T08:44:53.486Z,993.59
2019-04-14T08:45:53.478Z,993.61
2019-04-14T08:46:53.477Z,993.61
2019-04-14T08:47:53.472Z,993.58
2019-04-14T08:48:53.464Z,993.62
2019-04-14T08:49:53.466Z,993.62
2019-04-14T08:50:53.457Z,993.65
2019-04-14T08:51:53.449Z,993.69
2019-04-14T08:52:53.459Z,993.66
2019-04-14T08:53:53.436Z,993.64
2019-04-14T08:54:53.432Z,993.7
2019-04-14T08:55:53.426Z,993.66
2019-04-14T08:56:53.433Z,993.63
2019-04-14T08:57:53.482Z,993.69
2019-04-14T08:58:53.497Z,993.69
2019-04-14T08:59:53.660Z,993.64
2019-04-14T09:00:53.400Z,993.7
2019-04-14T09:01:53.395Z,993.73
2019-04-14T09:02:53.394Z,993.72
2019-04-14T09:03:53.385Z,993.77
2019-04-14T09:04:53.390Z,993.72
2019-04-14T09:05:53.376Z,993.76
2019-04-14T09:06:53.378Z,993.82
2019-04-14T09:07:53.366Z,993.78
2019-04-14T09:08:53.364Z,993.8
2019-04-14T09:09:53.367Z,993.74
2019-04-14T09:10:53.446Z,993.72
2019-04-14T09:11:53.348Z,993.71
2019-04-14T09:12:53.345Z,993.72
2019-04-14T09:13:53.341Z,993.77
2019-04-14T09:14:57.048Z,993.72
2019-04-14T09:15:53.356Z,993.74
2019-04-14T09:16:53.345Z,993.66
2019-04-14T09:17:53.327Z,993.67
2019-04-14T09:18:53.701Z,993.69
2019-04-14T09:19:53.337Z,993.64
2019-04-14T09:20:53.312Z,993.62
2019-04-14T09:21:53.320Z,993.65
2019-04-14T09:22:53.310Z,993.66
2019-04-14T09:23:53.314Z,993.64
2019-04-14T09:24:53.321Z,993.65
2019-04-14T09:25:53.291Z,993.64
2019-04-14T09:26:53.287Z,993.65
2019-04-14T09:27:53.282Z,993.67
2019-04-14T09:28:53.283Z,993.69
2019-04-14T09:29:53.284Z,993.72
2019-04-14T09:30:53.271Z,993.74
2019-04-14T09:31:53.272Z,993.73
2019-04-14T09:32:53.266Z,993.69
2019-04-14T09:33:53.260Z,993.67
2019-04-14T09:34:53.260Z,993.66
2019-04-14T09:35:53.253Z,993.63
2019-04-14T09:36:53.251Z,993.58
2019-04-14T09:37:53.252Z,993.6
2019-04-14T09:38:53.244Z,993.63
2019-04-14T09:39:53.242Z,993.64
2019-04-14T09:40:53.246Z,993.67
2019-04-14T09:41:53.240Z,993.69
2019-04-14T09:42:53.231Z,993.67
2019-04-14T09:43:53.225Z,993.65
2019-04-14T09:44:53.224Z,993.58
2019-04-14T09:45:53.221Z,993.53
2019-04-14T09:46:53.216Z,993.49
2019-04-14T09:47:53.214Z,993.5
2019-04-14T09:48:53.218Z,993.56
2019-04-14T09:49:53.206Z,993.57
2019-04-14T09:51:04.100Z,993.57
2019-04-14T09:51:53.200Z,993.65
2019-04-14T09:52:53.194Z,993.61
2019-04-14T09:53:53.204Z,993.61
2019-04-14T09:54:53.201Z,993.6
2019-04-14T09:55:53.192Z,993.58
2019-04-14T09:56:53.180Z,993.61
2019-04-14T09:57:53.175Z,993.59
2019-04-14T09:58:53.176Z,993.57
2019-04-14T09:59:53.167Z,993.57
2019-04-14T10:00:53.167Z,993.57
2019-04-14T10:01:53.161Z,993.55
2019-04-14T10:02:53.157Z,993.54
2019-04-14T10:03:53.154Z,993.62
2019-04-14T10:04:53.158Z,993.61
2019-04-14T10:05:53.149Z,993.64
2019-04-14T10:06:53.141Z,993.61
2019-04-14T10:07:53.150Z,993.61
2019-04-14T10:08:53.133Z,993.62
2019-04-14T10:09:53.131Z,993.61
2019-04-14T10:10:53.128Z,993.62
2019-04-14T10:11:56.248Z,993.59
2019-04-14T10:12:53.117Z,993.62
2019-04-14T10:13:53.112Z,993.61
2019-04-14T10:14:53.110Z,993.6
2019-04-14T10:15:53.105Z,993.57
2019-04-14T10:16:53.107Z,993.53
2019-04-14T10:17:53.104Z,993.52
2019-04-14T10:18:53.105Z,993.54
2019-04-14T10:19:53.090Z,993.55
2019-04-14T10:20:53.102Z,993.59
2019-04-14T10:21:53.080Z,993.59
2019-04-14T10:22:53.075Z,993.63
2019-04-14T10:23:53.083Z,993.65
2019-04-14T10:24:53.072Z,993.66
2019-04-14T10:25:53.066Z,993.65
2019-04-14T10:26:53.062Z,993.65
2019-04-14T10:27:53.058Z,993.67
2019-04-14T10:28:53.051Z,993.66
2019-04-14T10:29:53.052Z,993.67
2019-04-14T10:30:53.052Z,993.61
2019-04-14T10:31:53.037Z,993.62
2019-04-14T10:32:53.037Z,993.6
2019-04-14T10:33:53.051Z,993.61
2019-04-14T10:34:53.024Z,993.61
2019-04-14T10:35:53.025Z,993.58
2019-04-14T10:36:53.016Z,993.61
2019-04-14T10:37:53.015Z,993.62
2019-04-14T10:38:53.008Z,993.62
2019-04-14T10:39:53.005Z,993.59
2019-04-14T10:40:53.000Z,993.58
2019-04-14T10:41:52.999Z,993.57
2019-04-14T10:42:52.993Z,993.56
2019-04-14T10:43:52.991Z,993.59
2019-04-14T10:44:52.985Z,993.65
2019-04-14T10:45:52.986Z,993.64
2019-04-14T10:46:53.000Z,993.62
2019-04-14T10:47:52.977Z,993.67
2019-04-14T10:48:52.973Z,993.65
2019-04-14T10:49:52.971Z,993.63
2019-04-14T10:50:52.968Z,993.63
2019-04-14T10:51:52.962Z,993.59
2019-04-14T10:52:53.004Z,993.57
2019-04-14T10:53:52.962Z,993.58
2019-04-14T10:54:52.955Z,993.55
2019-04-14T10:55:52.951Z,993.58
2019-04-14T10:56:52.953Z,993.54
2019-04-14T10:57:52.949Z,993.56
2019-04-14T10:58:52.955Z,993.56
2019-04-14T10:59:52.944Z,993.57
2019-04-14T11:00:52.946Z,993.53
2019-04-14T11:01:52.942Z,993.5
2019-04-14T11:02:52.930Z,993.51
2019-04-14T11:03:52.930Z,993.55
2019-04-14T11:04:52.926Z,993.52
2019-04-14T11:05:52.952Z,993.56
2019-04-14T11:06:52.987Z,993.57
2019-04-14T11:07:52.915Z,993.54
2019-04-14T11:08:52.917Z,993.52
2019-04-14T11:09:53.949Z,993.51
2019-04-14T11:10:52.906Z,993.51
2019-04-14T11:11:52.904Z,993.44
2019-04-14T11:12:52.905Z,993.46
2019-04-14T11:13:52.893Z,993.48
2019-04-14T11:14:52.894Z,993.47
2019-04-14T11:15:52.888Z,993.48
2019-04-14T11:16:52.887Z,993.47
2019-04-14T11:17:52.881Z,993.51
2019-04-14T11:18:52.883Z,993.53
2019-04-14T11:19:52.878Z,993.56
2019-04-14T11:20:52.870Z,993.54
2019-04-14T11:21:52.869Z,993.53
2019-04-14T11:23:02.660Z,993.55
2019-04-14T11:23:52.907Z,993.57
2019-04-14T11:24:52.864Z,993.6
2019-04-14T11:25:52.859Z,993.65
2019-04-14T11:26:52.847Z,993.62
2019-04-14T11:27:52.842Z,993.68
2019-04-14T11:28:52.840Z,993.64
2019-04-14T11:29:54.095Z,993.66
2019-04-14T11:30:52.832Z,993.62
2019-04-14T11:31:52.831Z,993.6
2019-04-14T11:32:52.830Z,993.62
2019-04-14T11:33:52.833Z,993.58
2019-04-14T11:34:52.820Z,993.56
2019-04-14T11:35:52.819Z,993.54
2019-04-14T11:36:52.814Z,993.5
2019-04-14T11:37:52.819Z,993.51
2019-04-14T11:38:52.826Z,993.47
2019-04-14T11:39:52.815Z,993.42
2019-04-14T11:40:52.809Z,993.43
2019-04-14T11:41:52.797Z,993.44
2019-04-14T11:42:53.002Z,993.43
2019-04-14T11:43:52.789Z,993.44
2019-04-14T11:44:52.796Z,993.45
2019-04-14T11:45:52.784Z,993.46
2019-04-14T11:46:52.775Z,993.52
2019-04-14T11:47:52.772Z,993.53
2019-04-14T11:48:52.779Z,993.53
2019-04-14T11:49:52.767Z,993.58
2019-04-14T11:50:52.764Z,993.52
2019-04-14T11:51:55.367Z,993.52
2019-04-14T11:52:52.755Z,993.56
2019-04-14T11:53:52.753Z,993.52
2019-04-14T11:54:52.765Z,993.54
2019-04-14T11:55:52.751Z,993.58
2019-04-14T11:56:52.750Z,993.62
2019-04-14T11:57:52.742Z,993.66
2019-04-14T11:58:52.735Z,993.58
2019-04-14T11:59:52.733Z,993.6
2019-04-14T12:00:53.061Z,993.59
2019-04-14T12:01:52.724Z,993.59
2019-04-14T12:02:52.734Z,993.63
2019-04-14T12:03:52.724Z,993.62
2019-04-14T12:04:52.722Z,993.61
2019-04-14T12:05:52.716Z,993.61
2019-04-14T12:06:52.712Z,993.63
2019-04-14T12:07:52.715Z,993.59
2019-04-14T12:08:52.705Z,993.55
2019-04-14T12:09:52.704Z,993.54
2019-04-14T12:10:52.738Z,993.54
2019-04-14T12:11:52.698Z,993.6
2019-04-14T12:12:52.701Z,993.56
2019-04-14T12:13:52.697Z,993.55
2019-04-14T12:14:52.691Z,993.55
2019-04-14T12:15:52.685Z,993.64
2019-04-14T12:16:52.685Z,993.59
2019-04-14T12:17:52.680Z,993.61
2019-04-14T12:18:52.680Z,993.58
2019-04-14T12:19:52.674Z,993.59
2019-04-14T12:20:52.670Z,993.61
2019-04-14T12:21:52.669Z,993.53
2019-04-14T12:22:52.663Z,993.49
2019-04-14T12:23:52.671Z,993.55
2019-04-14T12:24:52.661Z,993.53
2019-04-14T12:26:04.602Z,993.62
2019-04-14T12:26:52.663Z,993.58
2019-04-14T12:27:53.518Z,993.6
2019-04-14T12:28:53.692Z,993.6
2019-04-14T12:29:52.655Z,993.6
2019-04-14T12:30:53.235Z,993.57
2019-04-14T12:31:53.072Z,993.57
2019-04-14T12:32:52.645Z,993.47
2019-04-14T12:33:52.633Z,993.54
2019-04-14T12:34:52.627Z,993.49
2019-04-14T12:35:52.657Z,993.53
2019-04-14T12:36:52.626Z,993.45
2019-04-14T12:37:52.623Z,993.39
2019-04-14T12:38:52.625Z,993.4
2019-04-14T12:39:52.613Z,993.43
2019-04-14T12:40:52.760Z,993.42
2019-04-14T12:41:52.620Z,993.49
2019-04-14T12:42:52.610Z,993.53
2019-04-14T12:43:52.606Z,993.47
2019-04-14T12:44:52.629Z,993.52
2019-04-14T12:45:52.614Z,993.5
2019-04-14T12:46:52.603Z,993.53
2019-04-14T12:47:52.616Z,993.54
2019-04-14T12:48:52.605Z,993.58
2019-04-14T12:49:52.598Z,993.53
2019-04-14T12:50:52.648Z,993.6
2019-04-14T12:51:52.593Z,993.65
2019-04-14T12:52:52.582Z,993.59
2019-04-14T12:53:52.597Z,993.53
2019-04-14T12:54:52.582Z,993.59
2019-04-14T12:55:52.585Z,993.6
2019-04-14T12:56:52.572Z,993.59
2019-04-14T12:57:52.560Z,993.57
2019-04-14T12:58:52.563Z,993.6
2019-04-14T12:59:52.564Z,993.51
2019-04-14T13:00:53.417Z,993.55
2019-04-14T13:01:52.567Z,993.53
2019-04-14T13:02:52.545Z,993.5
2019-04-14T13:03:52.559Z,993.56
2019-04-14T13:04:55.237Z,993.53
2019-04-14T13:05:52.551Z,993.57
2019-04-14T13:06:52.543Z,993.6
2019-04-14T13:07:52.537Z,993.54
2019-04-14T13:08:52.542Z,993.58
2019-04-14T13:09:52.531Z,993.57
2019-04-14T13:10:52.539Z,993.58
2019-04-14T13:11:52.526Z,993.56
2019-04-14T13:12:52.549Z,993.6
2019-04-14T13:13:52.537Z,993.6
2019-04-14T13:14:52.600Z,993.57
2019-04-14T13:15:52.582Z,993.64
2019-04-14T13:16:52.509Z,993.63
2019-04-14T13:17:52.496Z,993.57
2019-04-14T13:18:52.500Z,993.61
2019-04-14T13:19:52.493Z,993.61
2019-04-14T13:20:52.496Z,993.63
2019-04-14T13:21:52.486Z,993.64
2019-04-14T13:22:52.494Z,993.57
2019-04-14T13:23:52.481Z,993.56
2019-04-14T13:24:52.474Z,993.63
2019-04-14T13:25:52.485Z,993.65
2019-04-14T13:26:52.483Z,993.63
2019-04-14T13:27:52.463Z,993.7
2019-04-14T13:28:52.462Z,993.68
2019-04-14T13:29:52.473Z,993.67
2019-04-14T13:30:52.451Z,993.63
2019-04-14T13:31:52.449Z,993.63
2019-04-14T13:32:52.453Z,993.64